createdAt,value
2018-12-30T00:02:03.620Z,5.10
2018-12-30T00:04:49.679Z,5.10
2018-12-30T00:07:36.051Z,5.10
2018-12-30T00:13:29.977Z,5.00
2018-12-30T00:16:16.307Z,5.00
2018-12-30T00:19:04.281Z,4.90
2018-12-30T00:21:50.375Z,5.00
2018-12-30T00:24:36.720Z,5.10
2018-12-30T00:27:23.049Z,5.20
2018-12-30T00:30:09.141Z,5.20
2018-12-30T00:32:55.252Z,5.30
2018-12-30T00:35:41.328Z,5.30
2018-12-30T00:38:27.704Z,5.30
2018-12-30T00:41:13.801Z,5.40
2018-12-30T00:44:00.188Z,5.40
2018-12-30T00:46:46.288Z,5.40
2018-12-30T00:49:32.382Z,5.40
2018-12-30T00:52:12.229Z,5.50
2018-12-30T00:54:58.589Z,5.60
2018-12-30T00:57:46.830Z,5.70
2018-12-30T01:00:33.171Z,5.70
2018-12-30T01:03:19.509Z,5.80
2018-12-30T01:06:05.565Z,5.80
2018-12-30T01:08:51.657Z,5.80
2018-12-30T01:11:37.992Z,5.80
2018-12-30T01:14:24.083Z,5.80
2018-12-30T01:17:10.177Z,5.90
2018-12-30T01:19:56.511Z,5.70
2018-12-30T01:22:42.836Z,5.80
2018-12-30T01:25:29.200Z,5.80
2018-12-30T01:28:15.545Z,5.60
2018-12-30T01:31:01.638Z,5.60
2018-12-30T01:33:47.801Z,5.50
2018-12-30T01:36:34.887Z,5.50
2018-12-30T01:39:21.247Z,5.60
2018-12-30T01:42:07.426Z,5.50
2018-12-30T01:44:53.511Z,5.50
2018-12-30T01:47:40.603Z,5.50
2018-12-30T01:50:26.709Z,5.60
2018-12-30T01:53:06.073Z,5.50
2018-12-30T01:55:52.132Z,5.50
2018-12-30T01:58:38.306Z,5.40
2018-12-30T02:01:24.403Z,5.50
2018-12-30T02:04:10.520Z,5.40
2018-12-30T02:06:56.575Z,5.30
2018-12-30T02:09:42.669Z,5.40
2018-12-30T02:12:29.020Z,5.30
2018-12-30T02:15:15.351Z,5.40
2018-12-30T02:18:01.549Z,5.40
2018-12-30T02:20:47.628Z,5.40
2018-12-30T02:23:33.705Z,5.50
2018-12-30T02:26:19.799Z,5.50
2018-12-30T02:29:06.162Z,5.40
2018-12-30T02:31:52.359Z,5.50
2018-12-30T02:37:44.332Z,5.50
2018-12-30T02:40:30.442Z,5.40
2018-12-30T02:43:16.781Z,5.40
2018-12-30T02:46:03.128Z,5.40
2018-12-30T02:48:49.251Z,5.30
2018-12-30T02:51:28.948Z,5.30
2018-12-30T02:54:15.284Z,5.30
2018-12-30T02:57:01.647Z,5.40
2018-12-30T02:59:47.833Z,5.30
2018-12-30T03:02:34.143Z,5.20
2018-12-30T03:05:20.249Z,5.30
2018-12-30T03:08:06.576Z,5.50
2018-12-30T03:10:52.636Z,5.30
2018-12-30T03:13:38.735Z,5.40
2018-12-30T03:16:24.827Z,5.30
2018-12-30T03:19:10.899Z,5.30
2018-12-30T03:21:59.443Z,5.20
2018-12-30T03:24:45.376Z,5.20
2018-12-30T03:27:31.762Z,5.20
2018-12-30T03:30:18.143Z,5.00
2018-12-30T03:33:04.225Z,5.00
2018-12-30T03:35:50.320Z,5.10
2018-12-30T03:38:36.403Z,5.10
2018-12-30T03:41:22.750Z,5.10
2018-12-30T03:44:08.833Z,5.20
2018-12-30T03:46:55.199Z,5.20
2018-12-30T03:49:41.521Z,5.10
2018-12-30T03:52:20.888Z,5.20
2018-12-30T03:55:06.953Z,5.10
2018-12-30T03:57:53.331Z,5.20
2018-12-30T04:00:39.470Z,5.30
2018-12-30T04:03:25.563Z,5.30
2018-12-30T04:06:12.031Z,5.30
2018-12-30T04:08:58.364Z,5.40
2018-12-30T04:11:44.469Z,5.40
2018-12-30T04:14:30.550Z,5.50
2018-12-30T04:17:16.626Z,5.40
2018-12-30T04:23:30.990Z,5.30
2018-12-30T04:26:17.059Z,5.40
2018-12-30T04:29:03.110Z,5.40
2018-12-30T04:31:49.205Z,5.50
2018-12-30T04:34:35.534Z,5.40
2018-12-30T04:37:21.730Z,5.50
2018-12-30T04:40:07.837Z,5.50
2018-12-30T04:42:54.200Z,5.50
2018-12-30T04:45:40.279Z,5.50
2018-12-30T04:48:26.398Z,5.60
2018-12-30T04:51:12.508Z,5.60
2018-12-30T04:53:53.254Z,5.70
2018-12-30T04:56:39.373Z,5.70
2018-12-30T04:59:25.464Z,5.80
2018-12-30T05:02:11.794Z,5.70
2018-12-30T05:04:57.867Z,5.80
2018-12-30T05:07:44.246Z,5.90
2018-12-30T05:10:30.775Z,6.00
2018-12-30T05:13:17.142Z,6.00
2018-12-30T05:16:03.494Z,6.00
2018-12-30T05:18:49.602Z,6.20
2018-12-30T05:21:35.692Z,6.20
2018-12-30T05:24:21.777Z,6.30
2018-12-30T05:27:08.176Z,6.30
2018-12-30T05:29:54.227Z,6.30
2018-12-30T05:32:40.304Z,6.40
2018-12-30T05:35:26.397Z,6.40
2018-12-30T05:38:13.281Z,6.50
2018-12-30T05:40:59.626Z,6.50
2018-12-30T05:43:45.920Z,6.50
2018-12-30T05:46:32.251Z,6.60
2018-12-30T05:49:18.366Z,6.70
2018-12-30T05:51:58.928Z,6.60
2018-12-30T05:54:45.267Z,6.70
2018-12-30T05:57:31.656Z,6.70
2018-12-30T06:00:17.722Z,6.70
2018-12-30T06:03:04.083Z,6.70
2018-12-30T06:05:50.439Z,6.70
2018-12-30T06:08:36.520Z,6.60
2018-12-30T06:11:22.832Z,6.70
2018-12-30T06:14:08.924Z,6.60
2018-12-30T06:16:55.004Z,6.60
2018-12-30T06:19:41.075Z,6.40
2018-12-30T06:22:27.458Z,6.40
2018-12-30T06:25:13.536Z,6.30
2018-12-30T06:27:59.624Z,6.40
2018-12-30T06:30:45.706Z,6.40
2018-12-30T06:33:32.035Z,6.40
2018-12-30T06:36:18.220Z,6.30
2018-12-30T06:39:04.850Z,6.10
2018-12-30T06:41:51.199Z,6.20
2018-12-30T06:44:37.517Z,6.20
2018-12-30T06:47:23.611Z,6.10
2018-12-30T06:50:10.007Z,6.20
2018-12-30T06:52:57.410Z,6.20
2018-12-30T06:55:37.802Z,6.20
2018-12-30T06:58:23.900Z,6.20
2018-12-30T07:01:09.957Z,6.20
2018-12-30T07:03:56.065Z,6.20
2018-12-30T07:06:42.163Z,6.10
2018-12-30T07:09:28.475Z,6.10
2018-12-30T07:12:14.827Z,6.10
2018-12-30T07:15:01.184Z,6.20
2018-12-30T07:17:47.543Z,6.10
2018-12-30T07:20:55.402Z,6.00
2018-12-30T07:23:41.497Z,6.10
2018-12-30T07:26:27.841Z,6.10
2018-12-30T07:29:14.160Z,5.90
2018-12-30T07:32:00.233Z,5.90
2018-12-30T07:34:46.294Z,6.10
2018-12-30T07:37:32.837Z,5.90
2018-12-30T07:40:18.949Z,6.00
2018-12-30T07:43:05.061Z,5.90
2018-12-30T07:45:51.132Z,6.00
2018-12-30T07:48:37.210Z,6.00
2018-12-30T07:51:23.313Z,6.00
2018-12-30T07:54:02.895Z,6.00
2018-12-30T07:56:49.261Z,5.90
2018-12-30T07:59:35.613Z,6.00
2018-12-30T08:02:21.721Z,5.90
2018-12-30T08:05:07.817Z,6.00
2018-12-30T08:07:53.901Z,5.90
2018-12-30T08:10:40.287Z,6.00
2018-12-30T08:13:26.440Z,5.80
2018-12-30T08:16:12.581Z,5.80
2018-12-30T08:18:58.702Z,5.80
2018-12-30T08:21:44.761Z,5.90
2018-12-30T08:24:30.861Z,5.80
2018-12-30T08:27:16.976Z,5.80
2018-12-30T08:30:03.956Z,5.90
2018-12-30T08:32:50.028Z,5.90
2018-12-30T08:35:16.219Z,5.90
2018-12-30T08:37:42.822Z,5.90
2018-12-30T08:40:09.016Z,5.90
2018-12-30T08:42:55.382Z,5.90
2018-12-30T08:45:21.879Z,5.90
2018-12-30T08:48:08.217Z,6.00
2018-12-30T08:50:34.421Z,6.00
2018-12-30T08:53:00.667Z,6.10
2018-12-30T08:55:46.846Z,6.10
2018-12-30T08:58:32.939Z,6.00
2018-12-30T09:01:19.125Z,6.10
2018-12-30T09:04:05.227Z,6.10
2018-12-30T09:06:52.154Z,6.10
2018-12-30T09:09:39.582Z,6.10
2018-12-30T09:12:25.911Z,6.00
2018-12-30T09:15:12.010Z,6.00
2018-12-30T09:17:58.108Z,6.00
2018-12-30T09:20:44.191Z,6.10
2018-12-30T09:23:37.048Z,5.80
2018-12-30T09:26:18.488Z,6.00
2018-12-30T09:29:04.571Z,6.00
2018-12-30T09:31:50.891Z,6.00
2018-12-30T09:34:36.992Z,6.00
2018-12-30T09:37:23.069Z,6.00
2018-12-30T09:40:09.435Z,6.00
2018-12-30T09:42:55.505Z,6.00
2018-12-30T09:45:41.580Z,6.00
2018-12-30T09:48:33.695Z,6.00
2018-12-30T09:51:15.675Z,6.10
2018-12-30T09:53:55.292Z,6.20
2018-12-30T09:56:41.374Z,6.10
2018-12-30T09:59:07.974Z,6.20
2018-12-30T10:01:34.516Z,6.10
2018-12-30T10:04:20.623Z,6.10
2018-12-30T10:07:06.992Z,6.10
2018-12-30T10:09:53.095Z,6.30
2018-12-30T10:12:39.224Z,6.30
2018-12-30T10:15:25.321Z,6.30
2018-12-30T10:18:11.683Z,6.30
2018-12-30T10:20:57.783Z,6.30
2018-12-30T10:23:44.140Z,6.50
2018-12-30T10:26:30.236Z,6.40
2018-12-30T10:29:16.617Z,6.50
2018-12-30T10:32:02.938Z,6.40
2018-12-30T10:34:49.032Z,6.50
2018-12-30T10:37:35.434Z,6.40
2018-12-30T10:40:21.645Z,6.60
2018-12-30T10:43:08.214Z,6.40
2018-12-30T10:45:54.611Z,6.50
2018-12-30T10:48:40.691Z,6.70
2018-12-30T10:51:27.063Z,6.80
2018-12-30T10:54:07.511Z,6.80
2018-12-30T10:57:15.635Z,6.80
2018-12-30T11:00:02.140Z,6.90
2018-12-30T11:02:48.400Z,6.80
2018-12-30T11:05:34.457Z,6.70
2018-12-30T11:08:20.773Z,6.70
2018-12-30T11:11:07.233Z,6.70
2018-12-30T11:13:53.577Z,6.80
2018-12-30T11:16:39.949Z,6.80
2018-12-30T11:19:26.275Z,6.70
2018-12-30T11:22:12.617Z,6.80
2018-12-30T11:24:58.770Z,6.80
2018-12-30T11:27:44.864Z,6.80
2018-12-30T11:30:30.980Z,6.90
2018-12-30T11:33:17.079Z,7.00
2018-12-30T11:36:03.460Z,7.10
2018-12-30T11:38:49.666Z,7.20
2018-12-30T11:41:36.039Z,7.10
2018-12-30T11:44:42.323Z,7.20
2018-12-30T11:47:28.707Z,7.40
2018-12-30T11:50:15.082Z,7.30
2018-12-30T11:53:01.462Z,7.50
2018-12-30T11:55:41.494Z,7.60
2018-12-30T11:58:27.644Z,7.50
2018-12-30T12:01:13.768Z,8.00
2018-12-30T12:04:00.165Z,7.70
2018-12-30T12:06:46.519Z,7.50
2018-12-30T12:12:40.226Z,7.40
2018-12-30T12:15:26.300Z,7.40
2018-12-30T12:18:12.351Z,7.30
2018-12-30T12:21:05.928Z,7.20
2018-12-30T12:23:52.140Z,7.00
2018-12-30T12:26:38.507Z,7.10
2018-12-30T12:29:24.562Z,7.00
2018-12-30T12:32:10.692Z,7.10
2018-12-30T12:34:57.006Z,7.20
2018-12-30T12:37:43.382Z,7.10
2018-12-30T12:40:29.471Z,7.10
2018-12-30T12:43:15.586Z,7.20
2018-12-30T12:46:01.679Z,7.50
2018-12-30T12:48:48.047Z,7.50
2018-12-30T12:51:34.234Z,7.50
2018-12-30T12:54:14.257Z,7.40
2018-12-30T12:57:00.755Z,7.70
2018-12-30T12:59:46.835Z,7.60
2018-12-30T13:02:33.236Z,7.90
2018-12-30T13:05:19.327Z,7.90
2018-12-30T13:08:07.099Z,8.10
2018-12-30T13:10:54.078Z,8.10
2018-12-30T13:13:40.271Z,7.90
2018-12-30T13:16:26.342Z,7.70
2018-12-30T13:19:12.409Z,7.40
2018-12-30T13:21:58.796Z,7.60
2018-12-30T13:24:44.863Z,7.90
2018-12-30T13:27:31.257Z,8.90
2018-12-30T13:30:17.325Z,9.00
2018-12-30T13:33:03.653Z,8.50
2018-12-30T13:35:49.720Z,8.30
2018-12-30T13:38:35.828Z,8.20
2018-12-30T13:41:21.879Z,7.80
2018-12-30T13:44:07.989Z,7.50
2018-12-30T13:46:54.042Z,7.20
2018-12-30T13:49:40.369Z,7.30
2018-12-30T13:52:26.458Z,7.40
2018-12-30T13:55:05.696Z,7.30
2018-12-30T13:57:52.014Z,7.60
2018-12-30T14:00:38.369Z,7.50
2018-12-30T14:03:24.468Z,7.40
2018-12-30T14:06:10.563Z,7.40
2018-12-30T14:08:56.997Z,7.40
2018-12-30T14:11:24.713Z,7.40
2018-12-30T14:14:11.495Z,7.40
2018-12-30T14:16:57.609Z,7.50
2018-12-30T14:19:43.684Z,7.50
2018-12-30T14:22:30.090Z,7.40
2018-12-30T14:25:16.171Z,7.30
2018-12-30T14:28:02.234Z,7.20
2018-12-30T14:30:48.304Z,7.10
2018-12-30T14:33:34.405Z,7.10
2018-12-30T14:36:20.460Z,7.10
2018-12-30T14:39:06.583Z,7.10
2018-12-30T14:41:52.649Z,7.10
2018-12-30T14:44:39.001Z,7.00
2018-12-30T14:47:25.407Z,7.00
2018-12-30T14:50:11.772Z,6.90
2018-12-30T14:52:57.862Z,7.00
2018-12-30T14:55:37.123Z,7.20
2018-12-30T14:58:23.550Z,7.10
2018-12-30T15:01:14.725Z,7.10
2018-12-30T15:03:57.642Z,7.10
2018-12-30T15:06:43.969Z,7.20
2018-12-30T15:09:35.676Z,7.10
2018-12-30T15:12:18.098Z,7.00
2018-12-30T15:15:04.522Z,7.00
2018-12-30T15:17:50.598Z,7.00
2018-12-30T15:20:36.749Z,7.00
2018-12-30T15:23:22.842Z,6.90
2018-12-30T15:26:08.941Z,6.90
2018-12-30T15:28:55.026Z,7.10
2018-12-30T15:31:41.365Z,7.00
2018-12-30T15:34:27.474Z,7.00
2018-12-30T15:37:13.862Z,7.00
2018-12-30T15:40:00.274Z,7.00
2018-12-30T15:42:46.680Z,7.00
2018-12-30T15:45:33.041Z,7.00
2018-12-30T15:48:19.419Z,7.00
2018-12-30T15:51:05.830Z,7.00
2018-12-30T15:53:32.022Z,7.10
2018-12-30T15:56:12.065Z,7.00
2018-12-30T15:58:58.143Z,6.90
2018-12-30T16:01:44.245Z,7.00
2018-12-30T16:04:30.805Z,7.10
2018-12-30T16:07:17.196Z,7.10
2018-12-30T16:10:25.088Z,7.00
2018-12-30T16:13:11.152Z,7.00
2018-12-30T16:15:57.310Z,7.10
2018-12-30T16:18:43.414Z,7.10
2018-12-30T16:21:29.798Z,7.20
2018-12-30T16:24:16.150Z,7.10
2018-12-30T16:27:02.501Z,7.00
2018-12-30T16:29:48.636Z,7.00
2018-12-30T16:32:34.701Z,7.00
2018-12-30T16:35:21.070Z,7.00
2018-12-30T16:38:07.674Z,7.10
2018-12-30T16:40:53.821Z,7.10
2018-12-30T16:43:40.189Z,7.10
2018-12-30T16:46:26.300Z,7.20
2018-12-30T16:49:12.617Z,7.00
2018-12-30T16:51:58.999Z,7.00
2018-12-30T16:54:38.817Z,7.20
2018-12-30T16:57:25.244Z,7.10
2018-12-30T17:00:11.346Z,7.20
2018-12-30T17:02:57.807Z,7.20
2018-12-30T17:05:44.179Z,7.10
2018-12-30T17:08:30.291Z,7.10
2018-12-30T17:11:16.639Z,7.30
2018-12-30T17:14:02.739Z,7.30
2018-12-30T17:16:49.104Z,7.20
2018-12-30T17:19:35.197Z,7.30
2018-12-30T17:22:21.500Z,7.30
2018-12-30T17:25:07.595Z,7.30
2018-12-30T17:27:53.904Z,7.20
2018-12-30T17:30:40.007Z,7.10
2018-12-30T17:33:26.086Z,7.20
2018-12-30T17:36:12.441Z,7.20
2018-12-30T17:38:58.507Z,7.10
2018-12-30T17:41:44.909Z,7.20
2018-12-30T17:44:30.976Z,7.20
2018-12-30T17:47:17.070Z,7.00
2018-12-30T17:50:25.206Z,7.00
2018-12-30T17:53:11.261Z,7.00
2018-12-30T17:55:51.190Z,6.90
2018-12-30T17:58:37.329Z,6.80
2018-12-30T18:01:23.474Z,6.80
2018-12-30T18:04:09.821Z,6.80
2018-12-30T18:06:55.920Z,6.80
2018-12-30T18:09:42.001Z,6.70
2018-12-30T18:12:29.614Z,6.70
2018-12-30T18:15:16.008Z,6.80
2018-12-30T18:18:02.164Z,6.70
2018-12-30T18:20:48.233Z,6.70
2018-12-30T18:23:34.604Z,6.80
2018-12-30T18:26:40.832Z,6.70
2018-12-30T18:29:27.195Z,6.70
2018-12-30T18:32:13.574Z,6.80
2018-12-30T18:34:59.953Z,6.70
2018-12-30T18:37:46.019Z,6.80
2018-12-30T18:40:32.483Z,6.90
2018-12-30T18:43:18.637Z,7.00
2018-12-30T18:46:05.337Z,6.90
2018-12-30T18:48:51.991Z,7.10
2018-12-30T18:51:38.325Z,6.90
2018-12-30T18:54:24.488Z,6.90
2018-12-30T18:57:04.019Z,6.80
2018-12-30T18:59:50.342Z,6.90
2018-12-30T19:02:36.817Z,6.90
2018-12-30T19:05:22.920Z,7.00
2018-12-30T19:08:09.048Z,6.90
2018-12-30T19:10:55.460Z,7.10
2018-12-30T19:13:41.784Z,7.10
2018-12-30T19:16:27.912Z,7.10
2018-12-30T19:19:33.869Z,7.10
2018-12-30T19:22:20.272Z,7.10
2018-12-30T19:25:06.338Z,7.00
2018-12-30T19:27:52.648Z,7.00
2018-12-30T19:30:38.976Z,6.90
2018-12-30T19:33:25.568Z,6.80
2018-12-30T19:36:12.442Z,6.90
2018-12-30T19:38:58.813Z,6.80
2018-12-30T19:41:39.437Z,6.80
2018-12-30T19:44:26.054Z,6.80
2018-12-30T19:47:12.148Z,6.80
2018-12-30T19:49:58.283Z,6.90
2018-12-30T19:52:44.377Z,6.80
2018-12-30T19:55:30.502Z,6.70
2018-12-30T19:58:16.905Z,6.60
2018-12-30T20:01:03.100Z,6.40
2018-12-30T20:03:49.450Z,6.50
2018-12-30T20:06:35.897Z,6.50
2018-12-30T20:09:22.504Z,6.40
2018-12-30T20:12:02.456Z,6.40
2018-12-30T20:14:48.831Z,6.50
2018-12-30T20:17:35.127Z,6.40
2018-12-30T20:20:21.246Z,6.40
2018-12-30T20:23:09.342Z,6.40
2018-12-30T20:25:55.700Z,6.40
2018-12-30T20:28:42.057Z,6.40
2018-12-30T20:31:28.283Z,6.30
2018-12-30T20:34:14.368Z,6.40
2018-12-30T20:37:00.459Z,6.50
2018-12-30T20:39:46.862Z,6.40
2018-12-30T20:42:33.101Z,6.40
2018-12-30T20:45:12.814Z,6.50
2018-12-30T20:47:59.156Z,6.60
2018-12-30T20:50:45.534Z,6.40
2018-12-30T20:53:32.176Z,6.30
2018-12-30T20:56:18.521Z,6.40
2018-12-30T20:59:04.924Z,6.20
2018-12-30T21:01:50.995Z,6.10
2018-12-30T21:04:37.125Z,6.10
2018-12-30T21:07:23.415Z,6.00
2018-12-30T21:10:09.763Z,6.00
2018-12-30T21:12:56.093Z,5.90
2018-12-30T21:15:42.176Z,5.90
2018-12-30T21:18:28.691Z,5.80
2018-12-30T21:21:15.155Z,5.70
2018-12-30T21:24:01.531Z,5.80
2018-12-30T21:26:49.327Z,5.80
2018-12-30T21:29:36.861Z,5.60
2018-12-30T21:32:17.068Z,5.70
2018-12-30T21:38:31.531Z,5.60
2018-12-30T21:41:17.640Z,5.70
2018-12-30T21:44:03.817Z,5.80
2018-12-30T21:46:49.961Z,5.90
2018-12-30T21:49:36.309Z,5.90
2018-12-30T21:52:22.691Z,6.10
2018-12-30T21:55:30.848Z,6.10
2018-12-30T21:58:17.103Z,6.00
2018-12-30T22:01:03.218Z,6.10
2018-12-30T22:03:49.774Z,6.10
2018-12-30T22:06:36.084Z,6.10
2018-12-30T22:09:22.738Z,6.10
2018-12-30T22:12:09.155Z,6.00
2018-12-30T22:14:55.520Z,5.90
2018-12-30T22:17:41.719Z,5.90
2018-12-30T22:20:28.099Z,5.80
2018-12-30T22:23:14.189Z,5.80
2018-12-30T22:26:00.559Z,5.80
2018-12-30T22:28:46.923Z,5.80
2018-12-30T22:31:33.934Z,5.80
2018-12-30T22:34:13.671Z,5.80
2018-12-30T22:36:59.777Z,5.90
2018-12-30T22:40:06.436Z,5.90
2018-12-30T22:42:52.545Z,5.80
2018-12-30T22:45:38.913Z,5.90
2018-12-30T22:48:25.206Z,5.80
2018-12-30T22:51:11.551Z,5.80
2018-12-30T22:53:57.628Z,5.80
2018-12-30T22:56:43.745Z,5.70
2018-12-30T22:59:30.095Z,5.90
2018-12-30T23:02:16.459Z,5.80
2018-12-30T23:05:03.303Z,5.70
2018-12-30T23:07:49.671Z,5.60
2018-12-30T23:10:36.035Z,5.60
2018-12-30T23:13:22.563Z,5.60
2018-12-30T23:16:08.683Z,5.50
2018-12-30T23:18:55.014Z,5.50
2018-12-30T23:21:41.124Z,5.50
2018-12-30T23:24:27.446Z,5.50
2018-12-30T23:27:13.729Z,5.50
2018-12-30T23:29:59.815Z,5.30
2018-12-30T23:32:46.281Z,5.30
2018-12-30T23:35:26.376Z,5.40
2018-12-30T23:38:12.452Z,5.50
2018-12-30T23:40:58.788Z,5.40
2018-12-30T23:43:44.885Z,5.40
2018-12-30T23:46:30.970Z,5.40
2018-12-30T23:49:17.312Z,5.50
2018-12-30T23:52:03.401Z,5.50
2018-12-30T23:54:49.760Z,5.50
2018-12-30T23:57:35.831Z,5.50
